Long Lake, Illinois
Current Conditions -  °F | °C
As of 1:03 AM on Sunday 23 Nov 2014 (Local Time) from KUGN Reporting Station
Overcast Overcast  
Wind Chill: 50°   Ceiling: 1300
Heat Index: 50°   Visibility: 8mi
Dew Point: 46°   Wind: 12mph
Humidity: 86%   Direction: 210°SSW
Pressure: 29.8"   Gusts: NA
Location:  42.367°N, 88.1557°W
Report Text: KUGN 230703Z AUTO 21010KT 8SM BKN013 OVC022 10/08 A2980 RMK AO2 T01000078
Loading
Personal Weather Stations






























Interactive Weather Map New forecast layout! Learn more

10-Day Weather Forecast

Advertisements
Track Severe Weather on mobile